sensor_id;sensor_type;location;lat;lon;timestamp;pressure;altitude;pressure_sealevel;temperature;humidity
63447;BME280;49577;49.872;6.190;2024-02-28T00:01:13;99768.73;;;1.66;85.16
63447;BME280;49577;49.872;6.190;2024-02-28T00:03:38;99769.71;;;1.68;85.12
63447;BME280;49577;49.872;6.190;2024-02-28T00:06:03;99769.71;;;1.68;85.09
63447;BME280;49577;49.872;6.190;2024-02-28T00:08:28;99765.93;;;1.68;85.19
63447;BME280;49577;49.872;6.190;2024-02-28T00:10:54;99761.05;;;1.71;85.37
63447;BME280;49577;49.872;6.190;2024-02-28T00:13:19;99762.76;;;1.71;85.25
63447;BME280;49577;49.872;6.190;2024-02-28T00:15:47;99764.42;;;1.73;85.48
63447;BME280;49577;49.872;6.190;2024-02-28T00:18:12;99763.15;;;1.76;85.59
63447;BME280;49577;49.872;6.190;2024-02-28T00:20:37;99761.89;;;1.79;85.61
63447;BME280;49577;49.872;6.190;2024-02-28T00:23:02;99760.09;;;1.82;85.59
63447;BME280;49577;49.872;6.190;2024-02-28T00:25:27;99764.16;;;1.85;85.73
63447;BME280;49577;49.872;6.190;2024-02-28T00:27:53;99767.08;;;1.85;85.55
63447;BME280;49577;49.872;6.190;2024-02-28T00:30:18;99765.34;;;1.86;85.58
63447;BME280;49577;49.872;6.190;2024-02-28T00:32:43;99769.44;;;1.88;85.78
63447;BME280;49577;49.872;6.190;2024-02-28T00:35:09;99773.81;;;1.90;86.01
63447;BME280;49577;49.872;6.190;2024-02-28T00:37:34;99775.42;;;1.96;86.06
63447;BME280;49577;49.872;6.190;2024-02-28T00:39:59;99777.67;;;2.02;86.19
63447;BME280;49577;49.872;6.190;2024-02-28T00:42:24;99777.02;;;2.08;86.35
63447;BME280;49577;49.872;6.190;2024-02-28T00:44:50;99771.20;;;2.13;86.22
63447;BME280;49577;49.872;6.190;2024-02-28T00:47:16;99777.79;;;2.18;86.17
63447;BME280;49577;49.872;6.190;2024-02-28T00:49:41;99778.39;;;2.22;86.20
63447;BME280;49577;49.872;6.190;2024-02-28T00:52:06;99780.81;;;2.28;86.27
63447;BME280;49577;49.872;6.190;2024-02-28T00:54:31;99782.77;;;2.33;86.23
63447;BME280;49577;49.872;6.190;2024-02-28T00:56:57;99785.64;;;2.35;85.95
63447;BME280;49577;49.872;6.190;2024-02-28T00:59:22;99778.73;;;2.35;86.02
63447;BME280;49577;49.872;6.190;2024-02-28T01:01:50;99781.61;;;2.37;86.33
63447;BME280;49577;49.872;6.190;2024-02-28T01:04:16;99779.94;;;2.41;86.51
63447;BME280;49577;49.872;6.190;2024-02-28T01:06:41;99784.27;;;2.47;86.41
63447;BME280;49577;49.872;6.190;2024-02-28T01:09:07;99785.52;;;2.51;86.31
63447;BME280;49577;49.872;6.190;2024-02-28T01:11:32;99787.80;;;2.57;86.46
63447;BME280;49577;49.872;6.190;2024-02-28T01:13:57;99794.71;;;2.62;86.35
63447;BME280;49577;49.872;6.190;2024-02-28T01:16:22;99797.58;;;2.65;86.31
63447;BME280;49577;49.872;6.190;2024-02-28T01:18:48;99799.41;;;2.67;86.21
63447;BME280;49577;49.872;6.190;2024-02-28T01:21:13;99802.05;;;2.71;86.41
63447;BME280;49577;49.872;6.190;2024-02-28T01:23:38;99800.17;;;2.77;86.37
63447;BME280;49577;49.872;6.190;2024-02-28T01:26:03;99801.92;;;2.83;86.44
63447;BME280;49577;49.872;6.190;2024-02-28T01:28:30;99806.27;;;2.88;86.38
63447;BME280;49577;49.872;6.190;2024-02-28T01:30:55;99808.23;;;2.92;86.23
63447;BME280;49577;49.872;6.190;2024-02-28T01:33:20;99805.58;;;2.93;86.29
63447;BME280;49577;49.872;6.190;2024-02-28T01:35:46;99810.00;;;2.96;86.20
63447;BME280;49577;49.872;6.190;2024-02-28T01:38:11;99811.16;;;2.98;86.24
63447;BME280;49577;49.872;6.190;2024-02-28T01:40:36;99807.85;;;2.98;86.12
63447;BME280;49577;49.872;6.190;2024-02-28T01:43:07;99805.91;;;3.01;86.20
63447;BME280;49577;49.872;6.190;2024-02-28T01:45:33;99807.00;;;3.04;86.38
63447;BME280;49577;49.872;6.190;2024-02-28T01:47:58;99806.35;;;3.09;86.39
63447;BME280;49577;49.872;6.190;2024-02-28T01:50:24;99812.65;;;3.12;86.24
63447;BME280;49577;49.872;6.190;2024-02-28T01:52:49;99811.73;;;3.14;86.26
63447;BME280;49577;49.872;6.190;2024-02-28T01:55:14;99815.06;;;3.18;86.27
63447;BME280;49577;49.872;6.190;2024-02-28T01:57:40;99811.70;;;3.20;86.22
63447;BME280;49577;49.872;6.190;2024-02-28T02:00:06;99811.45;;;3.23;86.08
63447;BME280;49577;49.872;6.190;2024-02-28T02:02:31;99809.48;;;3.25;85.91
63447;BME280;49577;49.872;6.190;2024-02-28T02:04:56;99814.52;;;3.24;85.49
63447;BME280;49577;49.872;6.190;2024-02-28T02:07:23;99815.23;;;3.23;85.13
63447;BME280;49577;49.872;6.190;2024-02-28T02:09:48;99813.86;;;3.24;84.92
63447;BME280;49577;49.872;6.190;2024-02-28T02:12:13;99810.80;;;3.22;84.68
63447;BME280;49577;49.872;6.190;2024-02-28T02:14:39;99811.54;;;3.20;84.60
63447;BME280;49577;49.872;6.190;2024-02-28T02:17:04;99817.46;;;3.19;84.56
63447;BME280;49577;49.872;6.190;2024-02-28T02:19:29;99821.45;;;3.18;84.24
63447;BME280;49577;49.872;6.190;2024-02-28T02:21:57;99822.88;;;3.16;84.09
63447;BME280;49577;49.872;6.190;2024-02-28T02:24:23;99818.17;;;3.12;83.76
63447;BME280;49577;49.872;6.190;2024-02-28T02:26:48;99816.09;;;3.12;83.86
63447;BME280;49577;49.872;6.190;2024-02-28T02:29:16;99809.69;;;3.12;83.81
63447;BME280;49577;49.872;6.190;2024-02-28T02:31:41;99806.08;;;3.12;83.62
63447;BME280;49577;49.872;6.190;2024-02-28T02:34:07;99806.66;;;3.10;83.39
63447;BME280;49577;49.872;6.190;2024-02-28T02:36:32;99803.04;;;3.10;83.64
63447;BME280;49577;49.872;6.190;2024-02-28T02:38:57;99800.05;;;3.12;83.61
63447;BME280;49577;49.872;6.190;2024-02-28T02:41:23;99804.35;;;3.12;83.52
63447;BME280;49577;49.872;6.190;2024-02-28T02:43:48;99808.11;;;3.14;83.49
63447;BME280;49577;49.872;6.190;2024-02-28T02:46:13;99805.84;;;3.15;83.48
63447;BME280;49577;49.872;6.190;2024-02-28T02:48:38;99807.71;;;3.15;83.23
63447;BME280;49577;49.872;6.190;2024-02-28T02:51:03;99807.72;;;3.15;83.26
63447;BME280;49577;49.872;6.190;2024-02-28T02:53:29;99809.67;;;3.13;83.12
63447;BME280;49577;49.872;6.190;2024-02-28T02:55:54;99808.52;;;3.11;83.03
63447;BME280;49577;49.872;6.190;2024-02-28T02:58:19;99805.98;;;3.10;82.93
63447;BME280;49577;49.872;6.190;2024-02-28T03:00:44;99810.31;;;3.09;82.95
63447;BME280;49577;49.872;6.190;2024-02-28T03:03:10;99814.95;;;3.10;83.06
63447;BME280;49577;49.872;6.190;2024-02-28T03:05:35;99817.15;;;3.11;83.08
63447;BME280;49577;49.872;6.190;2024-02-28T03:08:00;99817.46;;;3.12;83.12
63447;BME280;49577;49.872;6.190;2024-02-28T03:10:25;99814.64;;;3.09;82.63
63447;BME280;49577;49.872;6.190;2024-02-28T03:12:51;99816.67;;;3.04;82.56
63447;BME280;49577;49.872;6.190;2024-02-28T03:15:16;99822.15;;;2.99;82.64
63447;BME280;49577;49.872;6.190;2024-02-28T03:17:42;99826.64;;;2.99;83.16
63447;BME280;49577;49.872;6.190;2024-02-28T03:20:07;99827.77;;;3.02;83.16
63447;BME280;49577;49.872;6.190;2024-02-28T03:22:32;99827.86;;;3.05;83.12
63447;BME280;49577;49.872;6.190;2024-02-28T03:24:58;99827.41;;;3.09;83.06
63447;BME280;49577;49.872;6.190;2024-02-28T03:27:23;99827.55;;;3.10;82.92
63447;BME280;49577;49.872;6.190;2024-02-28T03:29:49;99832.73;;;3.10;82.52
63447;BME280;49577;49.872;6.190;2024-02-28T03:32:14;99838.45;;;3.09;82.57
63447;BME280;49577;49.872;6.190;2024-02-28T03:34:39;99838.98;;;3.09;82.37
63447;BME280;49577;49.872;6.190;2024-02-28T03:37:04;99843.66;;;3.08;82.41
63447;BME280;49577;49.872;6.190;2024-02-28T03:39:30;99843.99;;;3.09;82.19
63447;BME280;49577;49.872;6.190;2024-02-28T03:41:55;99842.99;;;3.07;82.06
63447;BME280;49577;49.872;6.190;2024-02-28T03:44:21;99850.52;;;3.03;81.92
63447;BME280;49577;49.872;6.190;2024-02-28T03:46:46;99854.69;;;3.02;81.95
63447;BME280;49577;49.872;6.190;2024-02-28T03:49:12;99852.80;;;3.02;81.89
63447;BME280;49577;49.872;6.190;2024-02-28T03:51:40;99852.78;;;3.02;81.95
63447;BME280;49577;49.872;6.190;2024-02-28T03:54:06;99850.17;;;3.04;81.77
63447;BME280;49577;49.872;6.190;2024-02-28T03:56:31;99843.10;;;3.03;81.68
63447;BME280;49577;49.872;6.190;2024-02-28T03:58:56;99842.75;;;3.03;81.75
63447;BME280;49577;49.872;6.190;2024-02-28T04:01:22;99841.56;;;3.03;81.61
63447;BME280;49577;49.872;6.190;2024-02-28T04:03:47;99838.27;;;3.03;81.54
63447;BME280;49577;49.872;6.190;2024-02-28T04:06:12;99838.78;;;3.03;81.52
63447;BME280;49577;49.872;6.190;2024-02-28T04:08:37;99840.95;;;3.00;81.20
63447;BME280;49577;49.872;6.190;2024-02-28T04:11:03;99841.26;;;2.95;81.11
63447;BME280;49577;49.872;6.190;2024-02-28T04:13:28;99844.25;;;2.93;81.40
63447;BME280;49577;49.872;6.190;2024-02-28T04:15:53;99851.82;;;2.94;81.64
63447;BME280;49577;49.872;6.190;2024-02-28T04:18:19;99854.71;;;2.96;81.65
63447;BME280;49577;49.872;6.190;2024-02-28T04:20:44;99860.14;;;2.99;81.63
63447;BME280;49577;49.872;6.190;2024-02-28T04:23:09;99864.79;;;2.99;81.65
63447;BME280;49577;49.872;6.190;2024-02-28T04:25:35;99858.06;;;2.99;81.57
63447;BME280;49577;49.872;6.190;2024-02-28T04:28:01;99862.52;;;3.00;81.59
63447;BME280;49577;49.872;6.190;2024-02-28T04:30:26;99867.98;;;3.02;81.71
63447;BME280;49577;49.872;6.190;2024-02-28T04:32:51;99870.88;;;3.03;81.68
63447;BME280;49577;49.872;6.190;2024-02-28T04:35:16;99874.50;;;3.04;81.42
63447;BME280;49577;49.872;6.190;2024-02-28T04:37:44;99875.08;;;3.01;81.21
63447;BME280;49577;49.872;6.190;2024-02-28T04:40:09;99880.15;;;2.98;81.16
63447;BME280;49577;49.872;6.190;2024-02-28T04:42:34;99883.55;;;2.94;81.10
63447;BME280;49577;49.872;6.190;2024-02-28T04:45:00;99888.82;;;2.92;81.08
63447;BME280;49577;49.872;6.190;2024-02-28T04:47:25;99892.16;;;2.89;80.98
63447;BME280;49577;49.872;6.190;2024-02-28T04:49:51;99895.04;;;2.85;81.06
63447;BME280;49577;49.872;6.190;2024-02-28T04:52:16;99895.13;;;2.74;80.90
63447;BME280;49577;49.872;6.190;2024-02-28T04:54:41;99899.02;;;2.64;81.03
63447;BME280;49577;49.872;6.190;2024-02-28T04:57:07;99901.44;;;2.57;81.37
63447;BME280;49577;49.872;6.190;2024-02-28T04:59:32;99907.80;;;2.51;81.53
63447;BME280;49577;49.872;6.190;2024-02-28T05:01:57;99913.17;;;2.43;81.62
63447;BME280;49577;49.872;6.190;2024-02-28T05:04:23;99918.43;;;2.39;81.95
63447;BME280;49577;49.872;6.190;2024-02-28T05:06:48;99919.44;;;2.41;82.11
63447;BME280;49577;49.872;6.190;2024-02-28T05:09:13;99918.34;;;2.43;82.02
63447;BME280;49577;49.872;6.190;2024-02-28T05:11:39;99920.76;;;2.43;81.93
63447;BME280;49577;49.872;6.190;2024-02-28T05:14:04;99922.17;;;2.42;82.04
63447;BME280;49577;49.872;6.190;2024-02-28T05:16:29;99924.41;;;2.42;82.08
63447;BME280;49577;49.872;6.190;2024-02-28T05:18:54;99927.09;;;2.45;82.13
63447;BME280;49577;49.872;6.190;2024-02-28T05:21:20;99924.72;;;2.43;81.99
63447;BME280;49577;49.872;6.190;2024-02-28T05:23:45;99929.69;;;2.44;82.25
63447;BME280;49577;49.872;6.190;2024-02-28T05:26:10;99935.52;;;2.46;82.18
63447;BME280;49577;49.872;6.190;2024-02-28T05:28:35;99940.54;;;2.52;82.41
63447;BME280;49577;49.872;6.190;2024-02-28T05:31:20;99947.27;;;2.59;82.62
63447;BME280;49577;49.872;6.190;2024-02-28T05:33:45;99950.81;;;2.62;82.19
63447;BME280;49577;49.872;6.190;2024-02-28T05:36:10;99952.87;;;2.62;81.89
63447;BME280;49577;49.872;6.190;2024-02-28T05:38:36;99950.94;;;2.64;81.96
63447;BME280;49577;49.872;6.190;2024-02-28T05:41:01;99953.63;;;2.67;81.80
63447;BME280;49577;49.872;6.190;2024-02-28T05:43:26;99954.74;;;2.63;81.32
63447;BME280;49577;49.872;6.190;2024-02-28T05:45:52;99956.98;;;2.56;81.34
63447;BME280;49577;49.872;6.190;2024-02-28T05:48:18;99962.68;;;2.49;81.42
63447;BME280;49577;49.872;6.190;2024-02-28T05:50:43;99964.69;;;2.44;81.59
63447;BME280;49577;49.872;6.190;2024-02-28T05:53:09;99967.34;;;2.42;81.53
63447;BME280;49577;49.872;6.190;2024-02-28T05:55:34;99968.23;;;2.40;81.58
63447;BME280;49577;49.872;6.190;2024-02-28T05:57:59;99975.20;;;2.38;81.73
63447;BME280;49577;49.872;6.190;2024-02-28T06:00:24;99975.23;;;2.36;81.78
63447;BME280;49577;49.872;6.190;2024-02-28T06:02:49;99975.41;;;2.37;81.79
63447;BME280;49577;49.872;6.190;2024-02-28T06:05:15;99976.22;;;2.38;81.74
63447;BME280;49577;49.872;6.190;2024-02-28T06:07:40;99974.59;;;2.41;81.95
63447;BME280;49577;49.872;6.190;2024-02-28T06:10:05;99975.55;;;2.44;81.87
63447;BME280;49577;49.872;6.190;2024-02-28T06:12:31;99974.80;;;2.47;81.93
63447;BME280;49577;49.872;6.190;2024-02-28T06:14:56;99980.00;;;2.46;81.37
63447;BME280;49577;49.872;6.190;2024-02-28T06:17:21;99982.39;;;2.40;81.31
63447;BME280;49577;49.872;6.190;2024-02-28T06:19:47;99983.16;;;2.37;81.57
63447;BME280;49577;49.872;6.190;2024-02-28T06:22:12;99983.69;;;2.36;81.74
63447;BME280;49577;49.872;6.190;2024-02-28T06:24:38;99988.57;;;2.34;81.80
63447;BME280;49577;49.872;6.190;2024-02-28T06:27:04;99992.87;;;2.34;81.91
63447;BME280;49577;49.872;6.190;2024-02-28T06:29:30;99995.08;;;2.36;81.71
63447;BME280;49577;49.872;6.190;2024-02-28T06:31:55;100000.00;;;2.39;82.12
63447;BME280;49577;49.872;6.190;2024-02-28T06:34:21;99999.34;;;2.45;82.15
63447;BME280;49577;49.872;6.190;2024-02-28T06:36:47;99999.85;;;2.46;81.67
63447;BME280;49577;49.872;6.190;2024-02-28T06:39:13;100004.73;;;2.43;81.41
63447;BME280;49577;49.872;6.190;2024-02-28T06:41:38;100007.54;;;2.41;81.54
63447;BME280;49577;49.872;6.190;2024-02-28T06:44:03;100009.39;;;2.43;81.66
63447;BME280;49577;49.872;6.190;2024-02-28T06:46:29;100012.26;;;2.45;81.58
63447;BME280;49577;49.872;6.190;2024-02-28T06:48:54;100014.77;;;2.48;81.59
63447;BME280;49577;49.872;6.190;2024-02-28T06:51:19;100019.83;;;2.53;81.52
63447;BME280;49577;49.872;6.190;2024-02-28T06:53:44;100020.08;;;2.50;81.05
63447;BME280;49577;49.872;6.190;2024-02-28T06:56:10;100017.81;;;2.44;80.73
63447;BME280;49577;49.872;6.190;2024-02-28T06:58:36;100019.83;;;2.31;80.66
63447;BME280;49577;49.872;6.190;2024-02-28T07:01:01;100025.29;;;2.17;80.90
63447;BME280;49577;49.872;6.190;2024-02-28T07:03:26;100028.45;;;2.07;81.10
63447;BME280;49577;49.872;6.190;2024-02-28T07:05:52;100024.98;;;2.00;81.63
63447;BME280;49577;49.872;6.190;2024-02-28T07:08:18;100020.90;;;1.97;81.59
63447;BME280;49577;49.872;6.190;2024-02-28T07:10:44;100019.54;;;1.96;81.77
63447;BME280;49577;49.872;6.190;2024-02-28T07:13:12;100022.24;;;1.99;82.10
63447;BME280;49577;49.872;6.190;2024-02-28T07:15:38;100024.55;;;2.04;81.82
63447;BME280;49577;49.872;6.190;2024-02-28T07:18:05;100028.04;;;2.10;82.01
63447;BME280;49577;49.872;6.190;2024-02-28T07:20:30;100027.22;;;2.16;81.72
63447;BME280;49577;49.872;6.190;2024-02-28T07:22:55;100033.59;;;2.24;81.96
63447;BME280;49577;49.872;6.190;2024-02-28T07:25:20;100036.51;;;2.33;81.93
63447;BME280;49577;49.872;6.190;2024-02-28T07:27:47;100031.02;;;2.39;81.54
63447;BME280;49577;49.872;6.190;2024-02-28T07:30:12;100034.23;;;2.42;81.45
63447;BME280;49577;49.872;6.190;2024-02-28T07:32:37;100035.66;;;2.47;81.36
63447;BME280;49577;49.872;6.190;2024-02-28T07:35:03;100039.50;;;2.53;81.20
63447;BME280;49577;49.872;6.190;2024-02-28T07:37:29;100042.86;;;2.57;81.03
63447;BME280;49577;49.872;6.190;2024-02-28T07:39:54;100045.86;;;2.61;80.78
63447;BME280;49577;49.872;6.190;2024-02-28T07:42:19;100051.34;;;2.62;80.47
63447;BME280;49577;49.872;6.190;2024-02-28T07:44:44;100051.45;;;2.59;80.19
63447;BME280;49577;49.872;6.190;2024-02-28T07:47:10;100051.10;;;2.51;80.00
63447;BME280;49577;49.872;6.190;2024-02-28T07:49:35;100049.33;;;2.38;80.08
63447;BME280;49577;49.872;6.190;2024-02-28T07:52:00;100048.95;;;2.32;80.45
63447;BME280;49577;49.872;6.190;2024-02-28T07:54:26;100044.48;;;2.31;80.46
63447;BME280;49577;49.872;6.190;2024-02-28T07:56:52;100043.60;;;2.32;80.64
63447;BME280;49577;49.872;6.190;2024-02-28T07:59:17;100043.74;;;2.33;80.63
63447;BME280;49577;49.872;6.190;2024-02-28T08:01:43;100054.65;;;2.31;80.83
63447;BME280;49577;49.872;6.190;2024-02-28T08:04:10;100058.34;;;2.27;80.72
63447;BME280;49577;49.872;6.190;2024-02-28T08:06:35;100056.83;;;2.26;81.00
63447;BME280;49577;49.872;6.190;2024-02-28T08:09:00;100054.71;;;2.29;80.90
63447;BME280;49577;49.872;6.190;2024-02-28T08:11:26;100057.67;;;2.35;80.96
63447;BME280;49577;49.872;6.190;2024-02-28T08:13:51;100063.55;;;2.42;80.75
63447;BME280;49577;49.872;6.190;2024-02-28T08:16:17;100067.30;;;2.51;80.83
63447;BME280;49577;49.872;6.190;2024-02-28T08:18:42;100070.69;;;2.62;80.49
63447;BME280;49577;49.872;6.190;2024-02-28T08:21:08;100062.52;;;2.64;79.91
63447;BME280;49577;49.872;6.190;2024-02-28T08:23:33;100064.79;;;2.63;79.93
63447;BME280;49577;49.872;6.190;2024-02-28T08:25:58;100064.38;;;2.66;80.06
63447;BME280;49577;49.872;6.190;2024-02-28T08:28:24;100068.27;;;2.70;79.87
63447;BME280;49577;49.872;6.190;2024-02-28T08:30:49;100069.64;;;2.77;79.90
63447;BME280;49577;49.872;6.190;2024-02-28T08:33:14;100067.40;;;2.84;79.54
63447;BME280;49577;49.872;6.190;2024-02-28T08:35:40;100064.86;;;2.83;78.98
63447;BME280;49577;49.872;6.190;2024-02-28T08:38:05;100064.83;;;2.76;78.88
63447;BME280;49577;49.872;6.190;2024-02-28T08:40:30;100068.27;;;2.69;78.91
63447;BME280;49577;49.872;6.190;2024-02-28T08:42:55;100071.00;;;2.70;79.57
63447;BME280;49577;49.872;6.190;2024-02-28T08:45:24;100078.21;;;2.79;79.52
63447;BME280;49577;49.872;6.190;2024-02-28T08:47:50;100089.39;;;2.88;79.14
63447;BME280;49577;49.872;6.190;2024-02-28T08:50:15;100090.98;;;2.95;78.87
63447;BME280;49577;49.872;6.190;2024-02-28T08:52:40;100084.91;;;3.02;78.80
63447;BME280;49577;49.872;6.190;2024-02-28T08:55:06;100085.61;;;3.10;78.69
63447;BME280;49577;49.872;6.190;2024-02-28T08:57:31;100088.92;;;3.14;78.44
63447;BME280;49577;49.872;6.190;2024-02-28T08:59:56;100092.44;;;3.13;78.19
63447;BME280;49577;49.872;6.190;2024-02-28T09:02:21;100097.42;;;3.20;78.69
63447;BME280;49577;49.872;6.190;2024-02-28T09:04:47;100094.90;;;3.24;78.04
63447;BME280;49577;49.872;6.190;2024-02-28T09:07:16;100096.84;;;3.23;77.96
63447;BME280;49577;49.872;6.190;2024-02-28T09:09:44;100098.52;;;3.25;78.03
63447;BME280;49577;49.872;6.190;2024-02-28T09:12:09;100098.15;;;3.33;78.36
63447;BME280;49577;49.872;6.190;2024-02-28T09:14:35;100096.83;;;3.44;78.04
63447;BME280;49577;49.872;6.190;2024-02-28T09:17:00;100093.33;;;3.52;77.66
63447;BME280;49577;49.872;6.190;2024-02-28T09:19:28;100092.50;;;3.57;77.13
63447;BME280;49577;49.872;6.190;2024-02-28T09:21:53;100094.58;;;3.64;77.61
63447;BME280;49577;49.872;6.190;2024-02-28T09:24:19;100104.85;;;3.74;77.55
63447;BME280;49577;49.872;6.190;2024-02-28T09:26:44;100108.71;;;3.84;77.08
63447;BME280;49577;49.872;6.190;2024-02-28T09:29:09;100113.58;;;3.90;76.58
63447;BME280;49577;49.872;6.190;2024-02-28T09:31:34;100116.55;;;3.95;76.52
63447;BME280;49577;49.872;6.190;2024-02-28T09:34:00;100114.83;;;4.01;76.47
63447;BME280;49577;49.872;6.190;2024-02-28T09:36:29;100110.36;;;4.07;76.06
63447;BME280;49577;49.872;6.190;2024-02-28T09:38:54;100111.54;;;4.14;76.07
63447;BME280;49577;49.872;6.190;2024-02-28T09:41:20;100110.49;;;4.20;75.68
63447;BME280;49577;49.872;6.190;2024-02-28T09:43:47;100116.74;;;4.25;75.15
63447;BME280;49577;49.872;6.190;2024-02-28T09:46:12;100119.19;;;4.30;75.13
63447;BME280;49577;49.872;6.190;2024-02-28T09:48:39;100118.75;;;4.34;74.94
63447;BME280;49577;49.872;6.190;2024-02-28T09:51:05;100127.23;;;4.45;75.14
63447;BME280;49577;49.872;6.190;2024-02-28T09:53:31;100122.97;;;4.55;74.47
63447;BME280;49577;49.872;6.190;2024-02-28T09:55:56;100120.95;;;4.58;73.75
63447;BME280;49577;49.872;6.190;2024-02-28T09:58:21;100122.79;;;4.55;73.53
63447;BME280;49577;49.872;6.190;2024-02-28T10:00:48;100126.08;;;4.60;73.98
63447;BME280;49577;49.872;6.190;2024-02-28T10:03:13;100126.85;;;4.69;73.59
63447;BME280;49577;49.872;6.190;2024-02-28T10:05:39;100130.36;;;4.79;73.84
63447;BME280;49577;49.872;6.190;2024-02-28T10:08:05;100133.33;;;4.95;73.69
63447;BME280;49577;49.872;6.190;2024-02-28T10:10:30;100132.07;;;5.13;73.53
63447;BME280;49577;49.872;6.190;2024-02-28T10:12:56;100130.09;;;5.32;73.11
63447;BME280;49577;49.872;6.190;2024-02-28T10:15:22;100129.38;;;5.43;72.03
63447;BME280;49577;49.872;6.190;2024-02-28T10:17:47;100131.85;;;5.51;72.23
63447;BME280;49577;49.872;6.190;2024-02-28T10:20:13;100135.11;;;5.63;71.86
63447;BME280;49577;49.872;6.190;2024-02-28T10:22:39;100130.39;;;5.69;71.52
63447;BME280;49577;49.872;6.190;2024-02-28T10:25:04;100133.23;;;5.81;71.27
63447;BME280;49577;49.872;6.190;2024-02-28T10:27:33;100129.73;;;6.04;71.12
63447;BME280;49577;49.872;6.190;2024-02-28T10:29:59;100131.83;;;6.22;70.06
63447;BME280;49577;49.872;6.190;2024-02-28T10:32:24;100130.17;;;6.34;69.86
63447;BME280;49577;49.872;6.190;2024-02-28T10:34:50;100121.33;;;6.48;69.30
63447;BME280;49577;49.872;6.190;2024-02-28T10:37:16;100116.05;;;6.68;68.41
63447;BME280;49577;49.872;6.190;2024-02-28T10:39:42;100117.73;;;7.13;67.82
63447;BME280;49577;49.872;6.190;2024-02-28T10:42:08;100112.92;;;7.90;66.95
63447;BME280;49577;49.872;6.190;2024-02-28T10:44:34;100112.66;;;9.42;64.78
63447;BME280;49577;49.872;6.190;2024-02-28T10:47:00;100115.55;;;10.28;61.07
63447;BME280;49577;49.872;6.190;2024-02-28T10:49:26;100109.01;;;10.88;59.98
63447;BME280;49577;49.872;6.190;2024-02-28T10:51:51;100108.44;;;11.85;58.13
63447;BME280;49577;49.872;6.190;2024-02-28T10:54:20;100109.98;;;12.87;55.79
63447;BME280;49577;49.872;6.190;2024-02-28T10:56:46;100104.46;;;13.66;52.67
63447;BME280;49577;49.872;6.190;2024-02-28T10:59:13;100098.61;;;14.31;51.94
63447;BME280;49577;49.872;6.190;2024-02-28T11:01:40;100097.79;;;14.92;49.58
63447;BME280;49577;49.872;6.190;2024-02-28T11:04:11;100089.59;;;15.17;47.71
63447;BME280;49577;49.872;6.190;2024-02-28T11:06:47;100088.19;;;15.43;46.46
63447;BME280;49577;49.872;6.190;2024-02-28T11:09:12;100087.80;;;15.67;45.92
63447;BME280;49577;49.872;6.190;2024-02-28T11:11:39;100081.46;;;16.17;45.35
63447;BME280;49577;49.872;6.190;2024-02-28T11:14:05;100083.06;;;16.59;45.08
63447;BME280;49577;49.872;6.190;2024-02-28T11:16:33;100080.48;;;17.06;44.40
63447;BME280;49577;49.872;6.190;2024-02-28T11:18:59;100080.31;;;17.25;43.14
63447;BME280;49577;49.872;6.190;2024-02-28T11:21:25;100077.98;;;17.34;42.61
63447;BME280;49577;49.872;6.190;2024-02-28T11:23:51;100073.36;;;17.55;41.19
63447;BME280;49577;49.872;6.190;2024-02-28T11:26:16;100071.55;;;17.67;41.65
63447;BME280;49577;49.872;6.190;2024-02-28T11:28:42;100069.11;;;17.81;39.74
63447;BME280;49577;49.872;6.190;2024-02-28T11:31:08;100069.34;;;17.63;40.06
63447;BME280;49577;49.872;6.190;2024-02-28T11:33:35;100063.21;;;17.71;41.01
63447;BME280;49577;49.872;6.190;2024-02-28T11:36:00;100064.17;;;17.97;40.48
63447;BME280;49577;49.872;6.190;2024-02-28T11:38:26;100061.83;;;18.02;39.83
63447;BME280;49577;49.872;6.190;2024-02-28T11:40:51;100061.63;;;17.94;39.54
63447;BME280;49577;49.872;6.190;2024-02-28T11:43:17;100056.05;;;17.89;38.73
63447;BME280;49577;49.872;6.190;2024-02-28T11:45:42;100056.90;;;17.77;38.74
63447;BME280;49577;49.872;6.190;2024-02-28T11:48:08;100053.14;;;17.82;38.31
63447;BME280;49577;49.872;6.190;2024-02-28T11:50:34;100052.43;;;17.69;38.96
63447;BME280;49577;49.872;6.190;2024-02-28T11:52:59;100050.55;;;17.95;39.02
63447;BME280;49577;49.872;6.190;2024-02-28T11:55:26;100047.96;;;18.23;38.60
63447;BME280;49577;49.872;6.190;2024-02-28T11:57:52;100043.58;;;18.31;38.06
63447;BME280;49577;49.872;6.190;2024-02-28T12:00:17;100042.35;;;18.31;37.79
63447;BME280;49577;49.872;6.190;2024-02-28T12:02:42;100038.12;;;18.36;37.81
63447;BME280;49577;49.872;6.190;2024-02-28T12:05:08;100033.95;;;18.40;37.72
63447;BME280;49577;49.872;6.190;2024-02-28T12:07:34;100030.20;;;18.64;37.33
63447;BME280;49577;49.872;6.190;2024-02-28T12:10:00;100027.50;;;18.82;36.32
63447;BME280;49577;49.872;6.190;2024-02-28T12:12:27;100028.23;;;18.88;36.45
63447;BME280;49577;49.872;6.190;2024-02-28T12:14:52;100025.36;;;18.96;36.40
63447;BME280;49577;49.872;6.190;2024-02-28T12:17:17;100024.40;;;19.12;36.20
63447;BME280;49577;49.872;6.190;2024-02-28T12:19:43;100021.48;;;19.23;35.82
63447;BME280;49577;49.872;6.190;2024-02-28T12:22:08;100010.72;;;19.24;36.07
63447;BME280;49577;49.872;6.190;2024-02-28T12:24:34;100006.98;;;19.36;36.24
63447;BME280;49577;49.872;6.190;2024-02-28T12:26:59;99998.30;;;19.55;36.33
63447;BME280;49577;49.872;6.190;2024-02-28T12:29:24;100003.04;;;19.78;35.72
63447;BME280;49577;49.872;6.190;2024-02-28T12:31:49;99999.83;;;19.80;35.36
63447;BME280;49577;49.872;6.190;2024-02-28T12:34:15;99996.71;;;19.78;35.43
63447;BME280;49577;49.872;6.190;2024-02-28T12:36:40;99993.99;;;19.71;34.66
63447;BME280;49577;49.872;6.190;2024-02-28T12:39:06;99993.76;;;19.47;34.87
63447;BME280;49577;49.872;6.190;2024-02-28T12:41:32;99991.19;;;19.32;35.21
63447;BME280;49577;49.872;6.190;2024-02-28T12:43:57;99982.60;;;19.32;35.08
63447;BME280;49577;49.872;6.190;2024-02-28T12:46:23;99979.43;;;18.91;34.23
63447;BME280;49577;49.872;6.190;2024-02-28T12:48:48;99976.02;;;18.37;35.22
63447;BME280;49577;49.872;6.190;2024-02-28T12:51:20;99979.91;;;18.01;35.88
63447;BME280;49577;49.872;6.190;2024-02-28T12:53:45;99972.39;;;17.84;36.82
63447;BME280;49577;49.872;6.190;2024-02-28T12:56:11;99979.33;;;17.71;37.13